createdAt,value
2022-09-09T00:00:18.053Z,100.00
2022-09-09T00:03:33.160Z,100.00
2022-09-09T00:06:22.099Z,100.00
2022-09-09T00:09:19.499Z,100.00
2022-09-09T00:11:59.194Z,100.00
2022-09-09T00:15:27.874Z,100.00
2022-09-09T00:18:15.904Z,100.00
2022-09-09T00:21:11.933Z,100.00
2022-09-09T00:23:44.593Z,100.00
2022-09-09T00:26:24.911Z,100.00
2022-09-09T00:29:08.711Z,100.00
2022-09-09T00:31:38.314Z,100.00
2022-09-09T00:34:25.675Z,100.00
2022-09-09T00:36:57.233Z,100.00
2022-09-09T00:39:42.949Z,100.00
2022-09-09T00:42:26.131Z,100.00
2022-09-09T00:45:55.543Z,100.00
2022-09-09T00:48:39.836Z,100.00
2022-09-09T00:51:45.230Z,100.00
2022-09-09T00:54:45.818Z,100.00
2022-09-09T00:57:29.607Z,100.00
2022-09-09T01:00:23.179Z,100.00
2022-09-09T01:03:33.581Z,100.00
2022-09-09T01:06:32.743Z,100.00
2022-09-09T01:09:27.325Z,100.00
2022-09-09T01:12:09.213Z,100.00
2022-09-09T01:14:36.738Z,100.00
2022-09-09T01:17:23.444Z,100.00
2022-09-09T01:20:42.625Z,100.00
2022-09-09T01:23:30.039Z,100.00
2022-09-09T01:26:20.523Z,100.00
2022-09-09T01:28:50.948Z,100.00
2022-09-09T01:31:31.559Z,100.00
2022-09-09T01:33:58.755Z,100.00
2022-09-09T01:36:42.591Z,100.00
2022-09-09T01:39:10.357Z,100.00
2022-09-09T01:41:38.491Z,100.00
2022-09-09T01:44:08.599Z,100.00
2022-09-09T01:46:36.121Z,100.00
2022-09-09T01:49:08.229Z,100.00
2022-09-09T01:51:38.278Z,100.00
2022-09-09T01:54:07.191Z,100.00
2022-09-09T01:57:01.705Z,100.00
2022-09-09T02:00:10.719Z,100.00
2022-09-09T02:02:56.049Z,100.00
2022-09-09T02:05:41.791Z,100.00
2022-09-09T02:08:18.571Z,100.00
2022-09-09T02:10:56.564Z,100.00
2022-09-09T02:13:24.177Z,100.00
2022-09-09T02:16:03.929Z,100.00
2022-09-09T02:18:41.287Z,100.00
2022-09-09T02:21:12.823Z,100.00
2022-09-09T02:23:44.182Z,100.00
2022-09-09T02:26:21.253Z,100.00
2022-09-09T02:28:55.148Z,100.00
2022-09-09T02:31:26.773Z,100.00
2022-09-09T02:33:59.993Z,100.00
2022-09-09T02:36:34.504Z,100.00
2022-09-09T02:39:03.080Z,100.00
2022-09-09T02:41:41.030Z,100.00
2022-09-09T02:44:20.508Z,100.00
2022-09-09T02:47:25.617Z,100.00
2022-09-09T02:50:16.704Z,100.00
2022-09-09T02:53:00.120Z,100.00
2022-09-09T02:55:58.500Z,100.00
2022-09-09T02:58:27.482Z,100.00
2022-09-09T03:00:54.848Z,100.00
2022-09-09T03:03:23.092Z,100.00
2022-09-09T03:05:50.887Z,100.00
2022-09-09T03:08:18.470Z,100.00
2022-09-09T03:10:45.966Z,100.00
2022-09-09T03:13:16.349Z,100.00
2022-09-09T03:15:43.879Z,100.00
2022-09-09T03:18:11.622Z,100.00
2022-09-09T03:20:39.051Z,100.00
2022-09-09T03:23:06.348Z,100.00
2022-09-09T03:25:34.633Z,100.00
2022-09-09T03:28:02.979Z,100.00
2022-09-09T03:30:30.156Z,100.00
2022-09-09T03:32:58.375Z,100.00
2022-09-09T03:35:26.293Z,100.00
2022-09-09T03:37:53.485Z,100.00
2022-09-09T03:40:21.090Z,100.00
2022-09-09T03:42:49.774Z,100.00
2022-09-09T03:45:18.114Z,100.00
2022-09-09T03:47:45.406Z,100.00
2022-09-09T03:50:12.887Z,100.00
2022-09-09T03:52:43.196Z,100.00
2022-09-09T03:55:10.718Z,100.00
2022-09-09T03:57:38.934Z,100.00
2022-09-09T04:00:08.797Z,100.00
2022-09-09T04:02:36.123Z,100.00
2022-09-09T04:05:03.761Z,100.00
2022-09-09T04:07:30.962Z,100.00
2022-09-09T04:09:58.250Z,100.00
2022-09-09T04:12:25.609Z,100.00
2022-09-09T04:14:52.861Z,100.00
2022-09-09T04:17:20.657Z,100.00
2022-09-09T04:19:48.010Z,100.00
2022-09-09T04:22:15.302Z,100.00
2022-09-09T04:24:45.603Z,100.00
2022-09-09T04:27:16.050Z,100.00
2022-09-09T04:29:43.326Z,100.00
2022-09-09T04:32:10.519Z,100.00
2022-09-09T04:34:38.398Z,100.00
2022-09-09T04:37:05.556Z,100.00
2022-09-09T04:39:32.908Z,100.00
2022-09-09T04:42:00.364Z,100.00
2022-09-09T04:44:27.597Z,100.00
2022-09-09T04:46:54.795Z,100.00
2022-09-09T04:49:22.147Z,100.00
2022-09-09T04:51:50.724Z,100.00
2022-09-09T04:54:17.958Z,100.00
2022-09-09T04:56:45.460Z,100.00
2022-09-09T04:59:12.642Z,100.00
2022-09-09T05:01:39.906Z,100.00
2022-09-09T05:04:08.114Z,100.00
2022-09-09T05:06:37.233Z,100.00
2022-09-09T05:09:04.774Z,100.00
2022-09-09T05:11:37.061Z,100.00
2022-09-09T05:14:04.481Z,100.00
2022-09-09T05:16:32.827Z,100.00
2022-09-09T05:19:00.312Z,100.00
2022-09-09T05:21:27.695Z,100.00
2022-09-09T05:23:54.820Z,100.00
2022-09-09T05:26:24.023Z,100.00
2022-09-09T05:28:51.184Z,100.00
2022-09-09T05:31:20.339Z,100.00
2022-09-09T05:33:50.587Z,100.00
2022-09-09T05:36:23.392Z,100.00
2022-09-09T05:38:52.086Z,100.00
2022-09-09T05:41:19.662Z,100.00
2022-09-09T05:43:50.449Z,100.00
2022-09-09T05:46:23.981Z,100.00
2022-09-09T05:48:53.350Z,100.00
2022-09-09T05:51:25.202Z,100.00
2022-09-09T05:53:53.401Z,100.00
2022-09-09T05:56:25.957Z,100.00
2022-09-09T05:58:55.164Z,100.00
2022-09-09T06:01:34.963Z,100.00
2022-09-09T06:04:03.443Z,100.00
2022-09-09T06:06:37.923Z,100.00
2022-09-09T06:09:10.677Z,100.00
2022-09-09T06:11:40.595Z,100.00
2022-09-09T06:14:09.127Z,100.00
2022-09-09T06:16:38.919Z,100.00
2022-09-09T06:19:06.268Z,100.00
2022-09-09T06:21:38.558Z,100.00
2022-09-09T06:24:06.527Z,100.00
2022-09-09T06:26:37.440Z,100.00
2022-09-09T06:29:05.955Z,100.00
2022-09-09T06:31:37.969Z,100.00
2022-09-09T06:34:08.943Z,100.00
2022-09-09T06:36:39.605Z,99.80
2022-09-09T06:39:14.187Z,99.42
2022-09-09T06:41:43.748Z,98.98
2022-09-09T06:44:13.009Z,98.62
2022-09-09T06:46:40.800Z,98.03
2022-09-09T06:49:10.756Z,97.00
2022-09-09T06:51:45.518Z,95.44
2022-09-09T06:54:13.748Z,94.10
2022-09-09T06:56:44.209Z,93.64
2022-09-09T06:59:13.371Z,87.82
2022-09-09T07:01:50.323Z,73.95
2022-09-09T07:04:20.147Z,63.53
2022-09-09T07:06:47.926Z,57.70
2022-09-09T07:09:17.360Z,57.95
2022-09-09T07:11:48.799Z,49.33
2022-09-09T07:14:17.238Z,44.31
2022-09-09T07:16:47.129Z,44.05
2022-09-09T07:19:15.748Z,43.10
2022-09-09T07:21:44.481Z,41.54
2022-09-09T07:24:13.767Z,40.03
2022-09-09T07:26:41.565Z,36.82
2022-09-09T07:29:10.043Z,34.66
2022-09-09T07:31:40.970Z,37.08
2022-09-09T07:34:08.845Z,36.74
2022-09-09T07:36:39.801Z,35.14
2022-09-09T07:39:11.300Z,32.19
2022-09-09T07:41:45.632Z,29.31
2022-09-09T07:44:18.584Z,27.25
2022-09-09T07:46:51.652Z,23.33
2022-09-09T07:49:24.361Z,22.11
2022-09-09T07:51:54.249Z,22.15
2022-09-09T07:54:24.654Z,21.30
2022-09-09T07:56:53.458Z,20.85
2022-09-09T07:59:23.231Z,21.12
2022-09-09T08:01:55.863Z,19.58
2022-09-09T08:04:26.229Z,18.67
2022-09-09T08:06:58.304Z,16.99
2022-09-09T08:09:28.169Z,15.73
2022-09-09T08:12:00.586Z,16.74
2022-09-09T08:14:28.752Z,15.86
2022-09-09T08:16:57.322Z,17.33
2022-09-09T08:19:24.635Z,17.45
2022-09-09T08:21:52.102Z,19.19
2022-09-09T08:24:20.709Z,21.37
2022-09-09T08:26:50.413Z,22.08
2022-09-09T08:29:19.942Z,23.42
2022-09-09T08:31:51.900Z,22.70
2022-09-09T08:34:21.079Z,22.68
2022-09-09T08:36:50.528Z,21.94
2022-09-09T08:39:22.382Z,20.44
2022-09-09T08:42:30.246Z,24.14
2022-09-09T08:45:20.343Z,25.59
2022-09-09T08:48:10.035Z,27.32
2022-09-09T08:50:41.434Z,28.66
2022-09-09T08:53:08.934Z,29.91
2022-09-09T08:56:09.518Z,28.66
2022-09-09T08:58:50.163Z,30.11
2022-09-09T09:01:42.338Z,29.42
2022-09-09T09:04:28.752Z,27.29
2022-09-09T09:07:17.024Z,26.01
2022-09-09T09:10:30.449Z,28.43
2022-09-09T09:12:59.422Z,30.50
2022-09-09T09:15:37.523Z,32.46
2022-09-09T09:18:06.836Z,33.43
2022-09-09T09:20:49.784Z,33.78
2022-09-09T09:23:25.178Z,32.83
2022-09-09T09:26:01.182Z,34.75
2022-09-09T09:28:34.236Z,35.83
2022-09-09T09:31:11.829Z,36.45
2022-09-09T09:33:53.691Z,33.52
2022-09-09T09:36:35.204Z,27.47
2022-09-09T09:41:55.547Z,18.47
2022-09-09T09:44:32.294Z,21.25
2022-09-09T09:47:14.826Z,24.00
2022-09-09T09:50:00.735Z,20.47
2022-09-09T09:52:31.615Z,20.96
2022-09-09T09:55:07.561Z,21.59
2022-09-09T09:57:37.268Z,21.85
2022-09-09T10:00:24.035Z,21.89
2022-09-09T10:02:53.699Z,22.78
2022-09-09T10:05:29.830Z,20.14
2022-09-09T10:08:15.816Z,19.83
2022-09-09T10:11:02.030Z,21.80
2022-09-09T10:13:56.680Z,20.41
2022-09-09T10:16:32.921Z,22.28
2022-09-09T10:19:13.744Z,22.96
2022-09-09T10:22:03.495Z,22.43
2022-09-09T10:25:02.313Z,20.54
2022-09-09T10:28:25.489Z,18.36
2022-09-09T10:31:12.712Z,19.46
2022-09-09T10:33:58.076Z,20.70
2022-09-09T10:36:27.327Z,21.53
2022-09-09T10:39:32.183Z,24.46
2022-09-09T10:42:15.352Z,23.77
2022-09-09T10:45:18.768Z,23.16
2022-09-09T10:48:09.879Z,16.76
2022-09-09T10:51:01.323Z,12.53
2022-09-09T10:54:07.675Z,9.96
2022-09-09T10:56:36.474Z,14.69
2022-09-09T10:59:22.047Z,16.55
2022-09-09T11:02:27.826Z,14.05
2022-09-09T11:05:15.708Z,13.34
2022-09-09T11:07:57.209Z,13.67
2022-09-09T11:10:49.777Z,15.92
2022-09-09T11:13:45.959Z,12.40
2022-09-09T11:16:43.544Z,13.19
2022-09-09T11:19:45.528Z,14.64
2022-09-09T11:22:41.875Z,16.94
2022-09-09T11:25:33.352Z,18.29
2022-09-09T11:28:45.725Z,12.86
2022-09-09T11:31:41.162Z,10.61
2022-09-09T11:34:22.564Z,9.67
2022-09-09T11:37:40.848Z,9.83
2022-09-09T11:40:23.128Z,10.28
2022-09-09T11:43:19.754Z,9.69
2022-09-09T11:46:01.163Z,7.87
2022-09-09T11:48:37.904Z,8.15
2022-09-09T11:51:17.136Z,8.80
2022-09-09T11:54:06.222Z,8.14
2022-09-09T11:56:47.146Z,8.80
2022-09-09T11:59:32.962Z,8.02
2022-09-09T12:02:25.955Z,8.14
2022-09-09T12:05:04.013Z,9.41
2022-09-09T12:07:43.842Z,11.85
2022-09-09T12:10:39.606Z,12.98
2022-09-09T12:13:24.394Z,12.18
2022-09-09T12:15:57.856Z,11.23
2022-09-09T12:18:40.603Z,10.79
2022-09-09T12:21:45.914Z,10.88
2022-09-09T12:24:28.989Z,11.12
2022-09-09T12:27:24.699Z,10.54
2022-09-09T12:30:03.135Z,10.43
2022-09-09T12:32:31.266Z,10.54
2022-09-09T12:35:12.978Z,10.62
2022-09-09T12:37:50.000Z,10.27
2022-09-09T12:40:23.619Z,9.87
2022-09-09T12:42:51.457Z,11.38
2022-09-09T12:45:29.750Z,12.12
2022-09-09T12:48:13.187Z,12.73
2022-09-09T12:50:50.165Z,13.38
2022-09-09T12:53:47.528Z,13.26
2022-09-09T12:56:30.317Z,13.72
2022-09-09T12:58:59.427Z,14.51
2022-09-09T13:01:34.549Z,14.70
2022-09-09T13:04:02.759Z,15.01
2022-09-09T13:06:32.685Z,15.56
2022-09-09T13:09:02.630Z,15.81
2022-09-09T13:11:53.495Z,16.64
2022-09-09T13:14:40.617Z,17.74
2022-09-09T13:17:21.365Z,19.20
2022-09-09T13:19:53.985Z,19.95
2022-09-09T13:22:36.922Z,20.53
2022-09-09T13:25:06.881Z,21.29
2022-09-09T13:27:40.718Z,21.47
2022-09-09T13:30:28.337Z,22.65
2022-09-09T13:33:10.647Z,23.12
2022-09-09T13:35:50.544Z,22.77
2022-09-09T13:38:18.906Z,23.24
2022-09-09T13:41:10.286Z,22.93
2022-09-09T13:43:48.462Z,22.62
2022-09-09T13:46:41.619Z,23.20
2022-09-09T13:49:12.324Z,22.65
2022-09-09T13:51:46.523Z,22.68
2022-09-09T13:54:17.544Z,22.36
2022-09-09T13:56:50.809Z,20.77
2022-09-09T13:59:21.011Z,19.87
2022-09-09T14:01:50.205Z,19.65
2022-09-09T14:04:18.226Z,19.76
2022-09-09T14:06:48.575Z,19.69
2022-09-09T14:09:18.541Z,19.14
2022-09-09T14:11:47.365Z,19.76
2022-09-09T14:14:14.686Z,20.61
2022-09-09T14:16:42.154Z,21.23
2022-09-09T14:19:10.652Z,21.56
2022-09-09T14:21:38.135Z,22.39
2022-09-09T14:24:06.134Z,23.18
2022-09-09T14:26:33.558Z,23.37
2022-09-09T14:29:03.048Z,24.13
2022-09-09T14:31:30.897Z,24.44
2022-09-09T14:33:58.122Z,25.17
2022-09-09T14:36:25.390Z,25.69
2022-09-09T14:38:53.067Z,26.32
2022-09-09T14:41:23.651Z,27.30
2022-09-09T14:43:51.389Z,28.04
2022-09-09T14:46:22.952Z,28.28
2022-09-09T14:48:50.815Z,28.61
2022-09-09T14:51:24.333Z,29.41
2022-09-09T14:53:59.376Z,29.56
2022-09-09T14:56:32.298Z,29.54
2022-09-09T14:59:01.860Z,30.57
2022-09-09T15:01:30.759Z,30.80
2022-09-09T15:04:04.895Z,30.95
2022-09-09T15:06:39.518Z,31.45
2022-09-09T15:09:06.897Z,31.62
2022-09-09T15:11:39.015Z,31.22
2022-09-09T15:14:09.434Z,31.69
2022-09-09T15:16:37.751Z,32.15
2022-09-09T15:19:05.749Z,32.52
2022-09-09T15:21:37.074Z,32.87
2022-09-09T15:24:05.576Z,33.37
2022-09-09T15:26:32.988Z,33.90
2022-09-09T15:29:00.522Z,34.15
2022-09-09T15:31:33.103Z,34.43
2022-09-09T15:34:03.984Z,35.22
2022-09-09T15:36:58.395Z,35.73
2022-09-09T15:39:25.602Z,36.53
2022-09-09T15:41:53.235Z,36.65
2022-09-09T15:44:20.693Z,37.48
2022-09-09T15:46:51.892Z,37.61
2022-09-09T15:49:28.571Z,38.40
2022-09-09T15:52:00.073Z,38.57
2022-09-09T15:54:27.681Z,39.09
2022-09-09T15:56:58.518Z,39.23
2022-09-09T15:59:28.954Z,38.93
2022-09-09T16:01:57.593Z,39.01
2022-09-09T16:04:26.047Z,39.07
2022-09-09T16:07:01.051Z,39.14
2022-09-09T16:09:29.954Z,39.18
2022-09-09T16:12:02.451Z,40.24
2022-09-09T16:14:35.085Z,41.19
2022-09-09T16:17:04.223Z,42.10
2022-09-09T16:19:32.363Z,42.44
2022-09-09T16:22:00.070Z,43.47
2022-09-09T16:24:27.768Z,43.67
2022-09-09T16:26:56.120Z,44.28
2022-09-09T16:29:28.361Z,45.71
2022-09-09T16:32:01.223Z,47.05
2022-09-09T16:34:31.001Z,47.72
2022-09-09T16:36:58.597Z,49.19
2022-09-09T16:39:25.949Z,49.53
2022-09-09T16:41:53.534Z,50.26
2022-09-09T16:44:20.961Z,51.21
2022-09-09T16:46:50.087Z,51.14
2022-09-09T16:49:17.551Z,51.36
2022-09-09T16:51:49.320Z,51.60
2022-09-09T16:54:19.362Z,51.50
2022-09-09T16:56:49.430Z,52.05
2022-09-09T16:59:20.588Z,53.49
2022-09-09T17:01:51.628Z,54.91
2022-09-09T17:04:27.399Z,55.42
2022-09-09T17:06:58.454Z,56.04
2022-09-09T17:09:30.175Z,56.28
2022-09-09T17:11:58.016Z,56.99
2022-09-09T17:14:25.356Z,58.10
2022-09-09T17:16:52.813Z,58.46
2022-09-09T17:19:20.605Z,58.87
2022-09-09T17:24:39.435Z,60.41
2022-09-09T17:27:07.087Z,60.57
2022-09-09T17:29:37.186Z,60.83
2022-09-09T17:32:06.589Z,62.36
2022-09-09T17:34:35.997Z,62.82
2022-09-09T17:37:03.660Z,64.00
2022-09-09T17:39:31.406Z,64.55
2022-09-09T17:41:58.900Z,64.84
2022-09-09T17:44:26.296Z,64.81
2022-09-09T17:46:53.795Z,66.23
2022-09-09T17:49:20.994Z,66.47
2022-09-09T17:51:48.616Z,67.39
2022-09-09T17:54:20.621Z,66.93
2022-09-09T17:56:49.882Z,67.49
2022-09-09T17:59:19.434Z,67.32
2022-09-09T18:01:50.964Z,68.20
2022-09-09T18:04:19.882Z,68.01
2022-09-09T18:06:51.243Z,67.33
2022-09-09T18:09:23.692Z,66.85
2022-09-09T18:11:57.022Z,66.99
2022-09-09T18:14:31.174Z,67.47
2022-09-09T18:17:00.877Z,66.37
2022-09-09T18:19:33.415Z,65.95
2022-09-09T18:22:05.297Z,66.51
2022-09-09T18:24:33.456Z,66.92
2022-09-09T18:27:01.384Z,67.19
2022-09-09T18:29:30.016Z,67.13
2022-09-09T18:31:57.552Z,66.68
2022-09-09T18:34:28.474Z,66.39
2022-09-09T18:36:56.991Z,65.85
2022-09-09T18:39:28.519Z,65.43
2022-09-09T18:42:00.515Z,65.34
2022-09-09T18:44:33.664Z,65.31
2022-09-09T18:47:01.840Z,66.72
2022-09-09T18:49:30.487Z,66.15
2022-09-09T18:51:58.049Z,66.60
2022-09-09T18:54:30.057Z,66.09
2022-09-09T18:57:00.688Z,65.87
2022-09-09T18:59:28.733Z,65.82
2022-09-09T19:01:56.553Z,66.01
2022-09-09T19:04:27.434Z,65.69
2022-09-09T19:06:58.341Z,65.83
2022-09-09T19:09:33.889Z,65.49
2022-09-09T19:12:02.001Z,65.85
2022-09-09T19:14:30.591Z,66.33
2022-09-09T19:16:58.611Z,66.17
2022-09-09T19:19:30.586Z,66.79
2022-09-09T19:22:00.240Z,68.04
2022-09-09T19:24:33.741Z,68.37
2022-09-09T19:27:05.923Z,69.21
2022-09-09T19:29:36.745Z,69.52
2022-09-09T19:34:52.964Z,70.64
2022-09-09T19:37:21.057Z,70.84
2022-09-09T19:39:50.422Z,70.72
2022-09-09T19:42:17.843Z,71.11
2022-09-09T19:44:45.507Z,71.69
2022-09-09T19:47:15.159Z,71.52
2022-09-09T19:49:46.733Z,71.28
2022-09-09T19:52:16.534Z,71.13
2022-09-09T19:54:45.175Z,70.99
2022-09-09T19:57:13.190Z,70.73
2022-09-09T19:59:40.631Z,70.76
2022-09-09T20:02:12.260Z,71.40
2022-09-09T20:04:39.547Z,70.98
2022-09-09T20:07:07.350Z,71.37
2022-09-09T20:09:34.614Z,71.54
2022-09-09T20:12:02.251Z,71.37
2022-09-09T20:14:29.713Z,71.07
2022-09-09T20:16:57.046Z,71.01
2022-09-09T20:19:24.216Z,71.21
2022-09-09T20:21:52.207Z,71.00
2022-09-09T20:24:23.406Z,70.75
2022-09-09T20:26:50.863Z,70.84
2022-09-09T20:29:20.550Z,71.06
2022-09-09T20:31:49.225Z,70.92
2022-09-09T20:34:22.888Z,70.77
2022-09-09T20:36:51.777Z,70.98
2022-09-09T20:39:20.875Z,71.26
2022-09-09T20:41:50.439Z,71.43
2022-09-09T20:44:24.412Z,72.43
2022-09-09T20:47:00.237Z,73.49
2022-09-09T20:49:28.285Z,72.56
2022-09-09T20:51:55.775Z,73.28
2022-09-09T20:54:27.035Z,73.26
2022-09-09T20:56:58.174Z,73.32
2022-09-09T20:59:28.520Z,73.46
2022-09-09T21:01:57.463Z,73.66
2022-09-09T21:04:27.954Z,73.77
2022-09-09T21:06:55.255Z,73.85
2022-09-09T21:09:24.619Z,73.82
2022-09-09T21:11:53.842Z,73.66
2022-09-09T21:14:22.289Z,73.33
2022-09-09T21:16:49.927Z,73.16
2022-09-09T21:19:17.342Z,73.05
2022-09-09T21:21:46.732Z,73.15
2022-09-09T21:24:14.422Z,73.35
2022-09-09T21:26:41.613Z,73.90
2022-09-09T21:29:10.423Z,74.04
2022-09-09T21:31:38.600Z,73.83
2022-09-09T21:34:05.923Z,74.14
2022-09-09T21:36:33.811Z,74.10
2022-09-09T21:39:01.629Z,74.19
2022-09-09T21:41:29.019Z,73.97
2022-09-09T21:43:56.748Z,74.22
2022-09-09T21:46:26.792Z,74.18
2022-09-09T21:48:56.533Z,74.32
2022-09-09T21:51:25.379Z,74.31
2022-09-09T21:53:58.002Z,73.65
2022-09-09T21:56:26.822Z,73.85
2022-09-09T21:59:04.076Z,73.71
2022-09-09T22:01:33.629Z,74.08
2022-09-09T22:04:01.686Z,74.36
2022-09-09T22:06:29.057Z,74.77
2022-09-09T22:08:57.332Z,74.88
2022-09-09T22:11:25.406Z,74.92
2022-09-09T22:13:56.236Z,74.81
2022-09-09T22:16:24.262Z,75.59
2022-09-09T22:18:56.776Z,75.54
2022-09-09T22:21:26.334Z,75.41
2022-09-09T22:24:03.436Z,75.92
2022-09-09T22:26:35.943Z,76.67
2022-09-09T22:29:06.173Z,77.09
2022-09-09T22:31:34.765Z,77.33
2022-09-09T22:34:03.494Z,78.36
2022-09-09T22:36:31.960Z,79.31
2022-09-09T22:38:59.384Z,78.95
2022-09-09T22:41:26.672Z,78.65
2022-09-09T22:43:54.102Z,77.82
2022-09-09T22:46:23.772Z,78.28
2022-09-09T22:48:51.091Z,78.16
2022-09-09T22:51:18.563Z,78.07
2022-09-09T22:53:46.327Z,78.37
2022-09-09T22:56:19.958Z,78.16
2022-09-09T22:58:48.145Z,77.92
2022-09-09T23:01:19.541Z,77.46
2022-09-09T23:03:49.048Z,77.47
2022-09-09T23:06:24.093Z,77.49
2022-09-09T23:08:57.901Z,77.50
2022-09-09T23:11:31.830Z,77.17
2022-09-09T23:14:02.432Z,77.93
2022-09-09T23:16:39.732Z,78.17
2022-09-09T23:19:10.898Z,78.18
2022-09-09T23:21:41.154Z,78.47
2022-09-09T23:24:11.979Z,78.48
2022-09-09T23:26:40.887Z,77.78
2022-09-09T23:29:09.819Z,77.72
2022-09-09T23:31:38.075Z,79.83
2022-09-09T23:34:06.623Z,79.91
2022-09-09T23:36:34.269Z,79.78
2022-09-09T23:39:05.575Z,80.75
2022-09-09T23:41:35.761Z,81.64
2022-09-09T23:44:05.027Z,82.27
2022-09-09T23:46:34.026Z,83.22
2022-09-09T23:49:03.006Z,83.43
2022-09-09T23:51:31.873Z,83.74
2022-09-09T23:54:02.993Z,83.98
2022-09-09T23:56:35.507Z,84.20
2022-09-09T23:59:02.786Z,84.57
